createdAt,value
2023-04-18T00:04:21.002Z,11.20
2023-04-18T00:09:24.548Z,9.80
2023-04-18T00:14:30.067Z,11.20
2023-04-18T00:19:34.339Z,10.00
2023-04-18T00:24:37.092Z,9.60
2023-04-18T00:29:40.794Z,9.40
2023-04-18T00:34:45.202Z,10.00
2023-04-18T00:39:48.186Z,9.60
2023-04-18T00:44:50.986Z,8.60
2023-04-18T00:49:55.219Z,9.20
2023-04-18T00:54:58.023Z,11.20
2023-04-18T01:00:00.981Z,10.40
2023-04-18T01:05:06.640Z,10.00
2023-04-18T01:10:10.476Z,8.80
2023-04-18T01:15:13.225Z,11.80
2023-04-18T01:20:17.428Z,10.60
2023-04-18T01:25:21.534Z,9.60
2023-04-18T01:30:24.259Z,10.00
2023-04-18T01:35:27.213Z,10.20
2023-04-18T01:40:33.500Z,9.00
2023-04-18T01:45:36.271Z,10.00
2023-04-18T01:50:39.053Z,9.00
2023-04-18T01:55:43.214Z,9.60
2023-04-18T02:00:46.160Z,11.60
2023-04-18T02:05:48.976Z,11.60
2023-04-18T02:10:53.095Z,10.80
2023-04-18T02:15:56.896Z,9.00
2023-04-18T02:20:59.896Z,8.80
2023-04-18T02:26:05.766Z,9.00
2023-04-18T02:31:14.350Z,11.80
2023-04-18T02:36:17.225Z,8.80
2023-04-18T02:41:21.405Z,9.00
2023-04-18T02:46:24.205Z,9.20
2023-04-18T02:51:28.124Z,10.80
2023-04-18T02:56:39.718Z,9.00
2023-04-18T03:01:51.736Z,11.60
2023-04-18T03:06:59.122Z,9.80
2023-04-18T03:12:04.053Z,9.40
2023-04-18T03:17:07.970Z,11.00
2023-04-18T03:22:16.336Z,12.20
2023-04-18T03:27:28.694Z,12.00
2023-04-18T03:32:35.092Z,12.60
2023-04-18T03:37:38.178Z,11.20
2023-04-18T03:42:44.124Z,11.20
2023-04-18T03:47:47.173Z,11.00
2023-04-18T03:52:50.850Z,12.00
2023-04-18T03:57:55.721Z,8.80
2023-04-18T04:03:03.754Z,13.00
2023-04-18T04:08:07.342Z,11.00
2023-04-18T04:13:12.028Z,12.40
2023-04-18T04:18:16.987Z,11.00
2023-04-18T04:23:20.538Z,10.60
2023-04-18T04:28:26.132Z,12.60
2023-04-18T04:33:35.495Z,12.80
2023-04-18T04:38:44.233Z,11.00
2023-04-18T04:43:49.790Z,12.00
2023-04-18T04:48:55.559Z,13.00
2023-04-18T04:53:58.407Z,15.20
2023-04-18T04:59:02.880Z,13.00
2023-04-18T05:04:10.946Z,12.00
2023-04-18T05:09:14.227Z,10.20
2023-04-18T05:14:20.419Z,11.80
2023-04-18T05:19:23.680Z,10.40
2023-04-18T05:24:26.889Z,11.40
2023-04-18T05:29:31.203Z,15.00
2023-04-18T05:34:38.044Z,12.20
2023-04-18T05:39:41.705Z,12.40
2023-04-18T05:44:45.816Z,12.00
2023-04-18T05:49:48.544Z,12.40
2023-04-18T05:54:51.491Z,11.40
2023-04-18T05:59:55.817Z,12.80
2023-04-18T06:04:58.831Z,11.00
2023-04-18T06:10:01.957Z,11.00
2023-04-18T06:15:07.365Z,14.00
2023-04-18T06:20:11.410Z,12.80
2023-04-18T06:25:14.947Z,12.00
2023-04-18T06:30:21.763Z,11.20
2023-04-18T06:35:26.551Z,13.60
2023-04-18T06:40:29.602Z,11.80
2023-04-18T06:45:33.849Z,11.20
2023-04-18T06:50:36.758Z,12.00
2023-04-18T06:55:40.712Z,13.20
2023-04-18T07:00:47.561Z,15.60
2023-04-18T07:05:50.513Z,14.40
2023-04-18T07:10:53.272Z,15.40
2023-04-18T07:15:57.506Z,15.20
2023-04-18T07:21:00.363Z,17.00
2023-04-18T07:26:03.290Z,16.00
2023-04-18T07:31:11.219Z,18.00
2023-04-18T07:36:14.114Z,18.80
2023-04-18T07:41:16.924Z,18.80
2023-04-18T07:46:21.228Z,13.20
2023-04-18T07:51:25.512Z,16.00
2023-04-18T07:56:28.566Z,16.40
2023-04-18T08:01:32.729Z,16.60
2023-04-18T08:06:35.700Z,15.00
2023-04-18T08:11:38.969Z,26.20
2023-04-18T08:16:43.128Z,29.80
2023-04-18T08:21:45.933Z,28.60
2023-04-18T08:26:48.667Z,31.60
2023-04-18T08:31:53.024Z,27.20
2023-04-18T08:36:56.599Z,21.00
2023-04-18T08:41:59.937Z,19.40
2023-04-18T08:47:04.055Z,20.20
2023-04-18T08:52:09.975Z,17.80
2023-04-18T08:57:16.499Z,19.00
2023-04-18T09:02:22.089Z,21.00
2023-04-18T09:07:28.770Z,17.40
2023-04-18T09:12:32.633Z,19.80
2023-04-18T09:17:38.027Z,18.00
2023-04-18T09:22:46.373Z,15.40
2023-04-18T09:27:49.239Z,17.20
2023-04-18T09:33:00.176Z,16.80
2023-04-18T09:38:03.235Z,17.40
2023-04-18T09:43:18.716Z,14.00
2023-04-18T09:48:23.022Z,15.20
2023-04-18T09:53:25.921Z,15.00
2023-04-18T09:58:28.773Z,16.60
2023-04-18T10:03:35.633Z,15.80
2023-04-18T10:08:38.671Z,17.20
2023-04-18T10:13:42.456Z,19.00
2023-04-18T10:18:46.788Z,13.20
2023-04-18T10:23:50.401Z,13.20
2023-04-18T10:28:54.428Z,16.20
2023-04-18T10:34:17.894Z,15.20
2023-04-18T10:39:21.984Z,15.80
2023-04-18T10:44:24.863Z,19.20
2023-04-18T10:49:32.049Z,16.20
2023-04-18T10:54:38.944Z,21.80
2023-04-18T10:59:43.079Z,22.00
2023-04-18T11:04:51.258Z,23.60
2023-04-18T11:09:54.968Z,22.40
2023-04-18T11:14:57.916Z,25.80
2023-04-18T11:20:03.407Z,29.80
2023-04-18T11:25:08.752Z,29.40
2023-04-18T11:30:12.285Z,34.40
2023-04-18T11:35:16.813Z,33.00
2023-04-18T11:40:19.777Z,32.80
2023-04-18T11:45:22.552Z,29.80
2023-04-18T11:50:26.925Z,31.40
2023-04-18T11:55:29.700Z,38.75
2023-04-18T12:00:34.240Z,34.25
2023-04-18T12:05:39.139Z,37.20
2023-04-18T12:10:47.458Z,35.00
2023-04-18T12:15:50.685Z,39.25
2023-04-18T12:20:55.057Z,34.00
2023-04-18T12:26:02.098Z,34.40
2023-04-18T12:31:07.259Z,32.75
2023-04-18T12:36:11.815Z,37.25
2023-04-18T12:41:14.622Z,36.00
2023-04-18T12:46:17.448Z,33.00
2023-04-18T12:51:21.819Z,32.00
2023-04-18T12:56:24.669Z,55.50
2023-04-18T13:01:27.862Z,106.00
2023-04-18T13:06:32.015Z,195.00
2023-04-18T13:11:35.246Z,238.00
2023-04-18T13:16:38.351Z,217.50
2023-04-18T13:21:44.291Z,185.75
2023-04-18T13:26:47.135Z,178.00
2023-04-18T13:31:50.239Z,150.75
2023-04-18T13:36:54.371Z,146.25
2023-04-18T13:41:57.709Z,138.50
2023-04-18T13:47:01.058Z,141.50
2023-04-18T13:52:05.577Z,133.25
2023-04-18T13:57:11.492Z,128.50
2023-04-18T14:02:14.619Z,124.00
2023-04-18T14:07:19.031Z,123.75
2023-04-18T14:12:22.310Z,114.75
2023-04-18T14:17:25.443Z,120.00
2023-04-18T14:22:29.803Z,116.50
2023-04-18T14:27:32.908Z,122.00
2023-04-18T14:32:35.840Z,117.25
2023-04-18T14:37:40.317Z,112.25
2023-04-18T14:42:43.149Z,111.50
2023-04-18T14:47:46.030Z,109.75
2023-04-18T14:52:50.284Z,115.00
2023-04-18T14:57:54.674Z,107.50
2023-04-18T15:02:57.547Z,108.25
2023-04-18T15:08:02.037Z,103.25
2023-04-18T15:13:05.253Z,106.75
2023-04-18T15:18:08.689Z,105.00
2023-04-18T15:23:13.758Z,103.00
2023-04-18T15:28:18.224Z,103.00
2023-04-18T15:33:21.053Z,98.25
2023-04-18T15:38:25.375Z,103.00
2023-04-18T15:43:28.200Z,100.25
2023-04-18T15:48:34.114Z,98.50
2023-04-18T15:53:38.239Z,101.75
2023-04-18T15:58:41.039Z,100.50
2023-04-18T16:03:44.108Z,95.50
2023-04-18T16:08:48.333Z,96.75
2023-04-18T16:13:51.100Z,99.50
2023-04-18T16:18:53.864Z,98.00
2023-04-18T16:23:58.225Z,92.00
2023-04-18T16:29:01.096Z,90.75
2023-04-18T16:34:04.161Z,92.75
2023-04-18T16:39:08.549Z,80.50
2023-04-18T16:44:11.344Z,81.25
2023-04-18T16:49:14.480Z,84.00
2023-04-18T16:54:18.669Z,83.75
2023-04-18T16:59:21.502Z,77.00
2023-04-18T17:04:26.747Z,79.00
2023-04-18T17:09:31.173Z,81.33
2023-04-18T17:14:34.078Z,76.33
2023-04-18T17:19:37.151Z,73.67
2023-04-18T17:24:41.399Z,69.67
2023-04-18T17:29:44.386Z,74.33
2023-04-18T17:34:47.264Z,72.33
2023-04-18T17:39:51.451Z,76.00
2023-04-18T17:44:54.250Z,67.33
2023-04-18T17:49:57.089Z,69.33
2023-04-18T17:55:01.446Z,73.00
2023-04-18T18:00:08.874Z,70.33
2023-04-18T18:05:16.534Z,69.67
2023-04-18T18:10:23.145Z,66.33
2023-04-18T18:15:26.282Z,67.67
2023-04-18T18:20:29.339Z,66.67
2023-04-18T18:25:33.894Z,66.67
2023-04-18T18:30:38.032Z,66.67
2023-04-18T18:35:40.957Z,71.67
2023-04-18T18:40:45.431Z,66.00
2023-04-18T18:45:48.283Z,68.67
2023-04-18T18:50:51.929Z,63.33
2023-04-18T18:55:56.237Z,57.33
2023-04-18T19:01:02.494Z,65.00
2023-04-18T19:06:07.359Z,63.00
2023-04-18T19:11:12.734Z,65.33
2023-04-18T19:16:15.931Z,57.00
2023-04-18T19:21:20.138Z,62.67
2023-04-18T19:26:24.399Z,55.00
2023-04-18T19:31:27.415Z,59.67
2023-04-18T19:36:30.812Z,56.50
2023-04-18T19:41:34.949Z,56.33
2023-04-18T19:46:37.734Z,56.50
2023-04-18T19:51:40.678Z,53.00
2023-04-18T19:56:44.772Z,57.00
2023-04-18T20:01:47.519Z,51.50
2023-04-18T20:06:50.477Z,56.50
2023-04-18T20:11:54.812Z,56.75
2023-04-18T20:16:57.815Z,54.50
2023-04-18T20:22:00.623Z,51.75
2023-04-18T20:27:04.948Z,48.75
2023-04-18T20:32:07.787Z,47.75
2023-04-18T20:37:10.649Z,44.75
2023-04-18T20:42:15.002Z,45.00
2023-04-18T20:47:17.984Z,46.00
2023-04-18T20:52:20.746Z,48.00
2023-04-18T20:57:25.037Z,43.75
2023-04-18T21:02:28.004Z,48.25
2023-04-18T21:07:32.076Z,48.50
2023-04-18T21:12:36.217Z,46.00
2023-04-18T21:17:39.075Z,44.00
2023-04-18T21:22:41.833Z,40.75
2023-04-18T21:27:46.022Z,48.25
2023-04-18T21:32:51.336Z,43.25
2023-04-18T21:37:54.465Z,41.50
2023-04-18T21:42:58.577Z,39.25
2023-04-18T21:48:01.421Z,39.25
2023-04-18T21:53:04.246Z,40.00
2023-04-18T21:58:08.403Z,39.50
2023-04-18T22:03:11.670Z,39.50
2023-04-18T22:08:16.145Z,38.75
2023-04-18T22:13:20.445Z,42.00
2023-04-18T22:18:23.267Z,36.25
2023-04-18T22:23:27.242Z,39.00
2023-04-18T22:28:32.312Z,38.25
2023-04-18T22:33:35.320Z,37.00
2023-04-18T22:38:38.148Z,32.25
2023-04-18T22:43:42.408Z,40.80
2023-04-18T22:48:46.170Z,39.25
2023-04-18T22:53:49.396Z,32.60
2023-04-18T22:58:53.500Z,35.75
2023-04-18T23:03:56.663Z,31.00
2023-04-18T23:08:59.646Z,36.75
2023-04-18T23:14:03.831Z,28.60
2023-04-18T23:19:06.706Z,30.80
2023-04-18T23:24:10.670Z,34.60
2023-04-18T23:29:15.071Z,34.20
2023-04-18T23:34:17.869Z,30.00
2023-04-18T23:39:21.541Z,29.40
2023-04-18T23:44:25.765Z,31.60
2023-04-18T23:49:28.589Z,37.20
2023-04-18T23:54:31.388Z,30.20
2023-04-18T23:59:35.491Z,28.40
